createdAt,value
2022-12-12T00:01:29.581Z,7.88
2022-12-12T00:03:56.330Z,7.35
2022-12-12T00:06:24.133Z,7.13
2022-12-12T00:08:51.310Z,6.88
2022-12-12T00:11:19.646Z,7.38
2022-12-12T00:13:46.709Z,7.07
2022-12-12T00:16:13.714Z,8.27
2022-12-12T00:18:40.902Z,7.07
2022-12-12T00:21:12.463Z,7.75
2022-12-12T00:23:39.122Z,8.70
2022-12-12T00:26:08.696Z,7.75
2022-12-12T00:28:35.517Z,8.25
2022-12-12T00:31:02.152Z,7.95
2022-12-12T00:33:28.923Z,10.73
2022-12-12T00:35:55.896Z,7.63
2022-12-12T00:38:23.650Z,8.35
2022-12-12T00:40:50.857Z,9.25
2022-12-12T00:43:17.476Z,8.70
2022-12-12T00:45:44.098Z,9.35
2022-12-12T00:48:10.733Z,10.43
2022-12-12T00:50:37.533Z,9.45
2022-12-12T00:53:04.348Z,9.70
2022-12-12T00:55:31.082Z,10.55
2022-12-12T00:57:57.720Z,9.70
2022-12-12T01:00:24.455Z,10.52
2022-12-12T01:02:51.281Z,11.70
2022-12-12T01:05:18.602Z,11.32
2022-12-12T01:07:45.341Z,14.43
2022-12-12T01:10:12.173Z,11.20
2022-12-12T01:12:38.815Z,11.43
2022-12-12T01:15:07.268Z,11.95
2022-12-12T01:17:37.860Z,12.55
2022-12-12T01:20:06.590Z,14.38
2022-12-12T01:22:33.329Z,13.60
2022-12-12T01:25:00.703Z,14.45
2022-12-12T01:27:27.898Z,14.07
2022-12-12T01:29:56.096Z,13.80
2022-12-12T01:32:22.804Z,13.93
2022-12-12T01:34:49.451Z,13.27
2022-12-12T01:37:16.095Z,13.38
2022-12-12T01:39:43.618Z,14.35
2022-12-12T01:42:14.213Z,17.70
2022-12-12T01:44:44.004Z,13.73
2022-12-12T01:47:13.207Z,14.35
2022-12-12T01:49:41.182Z,13.98
2022-12-12T01:52:12.299Z,13.90
2022-12-12T01:54:42.966Z,15.20
2022-12-12T01:57:13.962Z,15.02
2022-12-12T01:59:40.883Z,14.73
2022-12-12T02:02:08.204Z,15.23
2022-12-12T02:04:35.248Z,15.18
2022-12-12T02:07:02.034Z,14.40
2022-12-12T02:09:28.857Z,14.88
2022-12-12T02:11:57.041Z,15.45
2022-12-12T02:14:33.193Z,15.10
2022-12-12T02:17:05.861Z,16.05
2022-12-12T02:19:35.254Z,14.80
2022-12-12T02:24:37.292Z,17.38
2022-12-12T02:27:13.080Z,14.48
2022-12-12T02:29:54.668Z,15.80
2022-12-12T02:33:02.374Z,15.93
2022-12-12T02:35:58.429Z,16.33
2022-12-12T02:38:29.742Z,17.05
2022-12-12T02:41:15.795Z,19.00
2022-12-12T02:43:59.630Z,16.00
2022-12-12T02:47:01.981Z,16.23
2022-12-12T02:49:42.926Z,17.38
2022-12-12T02:52:10.259Z,16.75
2022-12-12T02:54:37.728Z,17.58
2022-12-12T02:57:12.656Z,17.35
2022-12-12T02:59:42.586Z,16.67
2022-12-12T03:02:24.781Z,17.23
2022-12-12T03:05:18.783Z,17.85
2022-12-12T03:08:01.719Z,15.25
2022-12-12T03:10:38.594Z,14.10
2022-12-12T03:13:18.189Z,16.33
2022-12-12T03:16:09.621Z,17.08
2022-12-12T03:19:03.519Z,16.60
2022-12-12T03:22:04.404Z,17.30
2022-12-12T03:24:56.841Z,15.20
2022-12-12T03:27:31.964Z,15.82
2022-12-12T03:30:01.964Z,15.57
2022-12-12T03:32:33.756Z,16.02
2022-12-12T03:35:03.910Z,15.82
2022-12-12T03:37:37.303Z,16.05
2022-12-12T03:40:09.063Z,17.27
2022-12-12T03:43:11.950Z,15.38
2022-12-12T03:45:50.319Z,15.10
2022-12-12T03:48:30.747Z,15.70
2022-12-12T03:51:20.339Z,15.40
2022-12-12T03:54:07.307Z,17.60
2022-12-12T03:56:57.129Z,17.77
2022-12-12T03:59:31.015Z,19.08
2022-12-12T04:02:06.965Z,17.15
2022-12-12T04:05:05.454Z,18.60
2022-12-12T04:07:43.162Z,16.55
2022-12-12T04:10:33.428Z,18.30
2022-12-12T04:13:00.163Z,17.48
2022-12-12T04:15:46.926Z,17.65
2022-12-12T04:18:44.169Z,18.13
2022-12-12T04:21:49.861Z,16.33
2022-12-12T04:24:37.771Z,14.15
2022-12-12T04:27:16.210Z,16.83
2022-12-12T04:30:07.224Z,15.80
2022-12-12T04:33:07.796Z,16.15
2022-12-12T04:35:39.446Z,20.63
2022-12-12T04:38:08.898Z,43.80
2022-12-12T04:43:16.768Z,20.02
2022-12-12T04:45:46.762Z,17.45
2022-12-12T04:48:16.986Z,20.60
2022-12-12T04:50:44.920Z,23.48
2022-12-12T04:53:18.335Z,25.98
2022-12-12T04:55:48.810Z,23.08
2022-12-12T04:58:15.651Z,20.10
2022-12-12T05:00:57.929Z,20.27
2022-12-12T05:03:48.446Z,19.08
2022-12-12T05:06:19.280Z,17.98
2022-12-12T05:08:48.924Z,21.35
2022-12-12T05:11:18.438Z,21.42
2022-12-12T05:13:45.526Z,19.95
2022-12-12T05:16:18.898Z,28.52
2022-12-12T05:18:45.908Z,21.40
2022-12-12T05:21:13.260Z,18.58
2022-12-12T05:23:40.059Z,24.38
2022-12-12T05:26:27.955Z,18.73
2022-12-12T05:28:54.906Z,20.52
2022-12-12T05:31:22.010Z,22.02
2022-12-12T05:33:48.846Z,18.67
2022-12-12T05:36:15.956Z,18.58
2022-12-12T05:38:44.044Z,22.30
2022-12-12T05:41:11.574Z,19.90
2022-12-12T05:43:38.295Z,17.58
2022-12-12T05:46:05.337Z,22.60
2022-12-12T05:48:32.448Z,18.73
2022-12-12T05:51:01.355Z,22.10
2022-12-12T05:53:28.125Z,17.65
2022-12-12T05:55:54.767Z,21.30
2022-12-12T05:58:21.410Z,27.40
2022-12-12T06:00:49.289Z,20.55
2022-12-12T06:03:16.435Z,18.05
2022-12-12T06:05:43.156Z,18.35
2022-12-12T06:08:09.999Z,22.35
2022-12-12T06:10:36.966Z,17.30
2022-12-12T06:13:03.961Z,21.77
2022-12-12T06:15:30.739Z,20.58
2022-12-12T06:17:58.611Z,19.00
2022-12-12T06:20:25.341Z,19.40
2022-12-12T06:22:53.838Z,21.73
2022-12-12T06:25:20.917Z,21.77
2022-12-12T06:27:47.552Z,20.15
2022-12-12T06:30:14.579Z,24.90
2022-12-12T06:32:41.542Z,19.73
2022-12-12T06:35:08.882Z,23.00
2022-12-12T06:37:35.786Z,29.30
2022-12-12T06:40:02.695Z,25.90
2022-12-12T06:42:29.485Z,21.27
2022-12-12T06:44:56.152Z,17.80
2022-12-12T06:47:22.838Z,19.95
2022-12-12T06:49:49.534Z,17.38
2022-12-12T06:52:16.204Z,27.67
2022-12-12T06:54:42.908Z,20.58
2022-12-12T06:57:09.607Z,22.80
2022-12-12T06:59:36.377Z,21.38
2022-12-12T07:02:03.433Z,17.00
2022-12-12T07:04:30.123Z,19.42
2022-12-12T07:06:56.779Z,17.42
2022-12-12T07:09:23.486Z,19.63
2022-12-12T07:11:50.157Z,15.48
2022-12-12T07:14:17.386Z,14.00
2022-12-12T07:16:44.055Z,16.08
2022-12-12T07:19:10.718Z,15.75
2022-12-12T07:21:37.498Z,15.93
2022-12-12T07:24:04.279Z,18.33
2022-12-12T07:26:30.975Z,14.15
2022-12-12T07:28:57.581Z,17.48
2022-12-12T07:31:26.610Z,23.88
2022-12-12T07:33:54.473Z,18.55
2022-12-12T07:36:21.489Z,13.50
2022-12-12T07:38:48.166Z,16.30
2022-12-12T07:41:17.139Z,14.95
2022-12-12T07:43:45.862Z,22.13
2022-12-12T07:46:20.116Z,18.45
2022-12-12T07:48:46.893Z,24.50
2022-12-12T07:51:14.440Z,18.83
2022-12-12T07:53:41.687Z,17.15
2022-12-12T07:56:10.114Z,18.10
2022-12-12T07:58:37.062Z,18.98
2022-12-12T08:01:30.614Z,18.33
2022-12-12T08:03:57.410Z,20.17
2022-12-12T08:06:24.551Z,19.40
2022-12-12T08:08:52.186Z,13.95
2022-12-12T08:11:21.207Z,18.00
2022-12-12T08:13:47.978Z,19.80
2022-12-12T08:16:26.350Z,14.35
2022-12-12T08:18:54.198Z,15.85
2022-12-12T08:21:25.629Z,16.35
2022-12-12T08:24:00.796Z,19.10
2022-12-12T08:26:28.371Z,16.17
2022-12-12T08:28:56.027Z,15.98
2022-12-12T08:31:23.481Z,17.98
2022-12-12T08:33:51.657Z,18.90
2022-12-12T08:36:26.828Z,15.88
2022-12-12T08:38:53.774Z,17.70
2022-12-12T08:41:20.607Z,21.30
2022-12-12T08:43:47.746Z,15.52
2022-12-12T08:46:18.149Z,22.05
2022-12-12T08:48:46.001Z,14.95
2022-12-12T08:51:13.094Z,14.80
2022-12-12T08:53:39.791Z,19.15
2022-12-12T08:56:06.993Z,13.55
2022-12-12T08:58:33.671Z,15.30
2022-12-12T09:01:00.340Z,13.95
2022-12-12T09:03:29.387Z,13.85
2022-12-12T09:05:56.541Z,17.25
2022-12-12T09:08:23.223Z,14.60
2022-12-12T09:10:50.739Z,14.35
2022-12-12T09:13:18.062Z,16.92
2022-12-12T09:15:44.748Z,13.43
2022-12-12T09:18:11.435Z,22.88
2022-12-12T09:20:38.243Z,32.33
2022-12-12T09:23:04.890Z,34.80
2022-12-12T09:25:31.629Z,38.03
2022-12-12T09:27:58.308Z,31.70
2022-12-12T09:30:25.577Z,27.95
2022-12-12T09:32:52.214Z,25.58
2022-12-12T09:35:18.881Z,33.10
2022-12-12T09:37:45.487Z,36.28
2022-12-12T09:40:21.790Z,32.22
2022-12-12T09:42:50.140Z,30.92
2022-12-12T09:45:17.193Z,31.02
2022-12-12T09:47:46.779Z,27.95
2022-12-12T09:50:13.822Z,45.35
2022-12-12T09:52:41.290Z,28.90
2022-12-12T09:55:25.899Z,29.35
2022-12-12T09:58:14.637Z,28.27
2022-12-12T10:00:44.906Z,28.65
2022-12-12T10:03:22.145Z,33.00
2022-12-12T10:09:16.811Z,33.95
2022-12-12T10:11:54.713Z,43.28
2022-12-12T10:14:26.609Z,39.75
2022-12-12T10:16:57.740Z,30.92
2022-12-12T10:19:31.797Z,34.17
2022-12-12T10:22:04.979Z,36.80
2022-12-12T10:24:43.332Z,48.70
2022-12-12T10:27:12.608Z,38.25
2022-12-12T10:29:47.279Z,36.13
2022-12-12T10:32:51.232Z,38.03
2022-12-12T10:35:30.728Z,39.25
2022-12-12T10:38:07.172Z,21.85
2022-12-12T10:41:00.034Z,31.98
2022-12-12T10:43:30.289Z,32.38
2022-12-12T10:46:27.229Z,31.83
2022-12-12T10:48:54.290Z,30.85
2022-12-12T10:51:23.411Z,46.15
2022-12-12T10:53:50.308Z,37.00
2022-12-12T10:56:24.054Z,38.13
2022-12-12T10:59:03.761Z,32.03
2022-12-12T11:02:07.966Z,30.83
2022-12-12T11:04:20.164Z,36.35
2022-12-12T11:06:49.439Z,36.03
2022-12-12T11:11:59.511Z,44.83
2022-12-12T11:14:35.390Z,26.77
2022-12-12T11:17:02.264Z,30.60
2022-12-12T11:19:37.302Z,24.23
2022-12-12T11:22:04.936Z,23.05
2022-12-12T11:24:32.908Z,20.55
2022-12-12T11:27:05.990Z,25.73
2022-12-12T11:29:44.648Z,23.35
2022-12-12T11:32:26.062Z,25.45
2022-12-12T11:34:58.303Z,20.23
2022-12-12T11:37:27.675Z,25.55
2022-12-12T11:39:56.354Z,22.73
2022-12-12T11:42:34.455Z,21.80
2022-12-12T11:45:10.736Z,22.80
2022-12-12T11:47:43.356Z,24.35
2022-12-12T11:50:30.255Z,23.98
2022-12-12T11:53:00.547Z,17.40
2022-12-12T11:55:50.601Z,24.80
2022-12-12T11:58:23.225Z,18.60
2022-12-12T12:01:11.923Z,19.60
2022-12-12T12:03:53.753Z,21.55
2022-12-12T12:06:49.524Z,17.25
2022-12-12T12:09:40.668Z,18.80
2022-12-12T12:12:10.642Z,18.63
2022-12-12T12:15:01.070Z,16.50
2022-12-12T12:17:50.899Z,24.33
2022-12-12T12:20:20.442Z,19.73
2022-12-12T12:23:00.664Z,20.38
2022-12-12T12:25:38.154Z,16.50
2022-12-12T12:28:07.794Z,20.10
2022-12-12T12:30:51.078Z,19.30
2022-12-12T12:33:20.815Z,18.17
2022-12-12T12:35:57.916Z,20.98
2022-12-12T12:38:58.522Z,20.52
2022-12-12T12:41:36.526Z,19.08
2022-12-12T12:44:20.381Z,18.08
2022-12-12T12:46:56.215Z,19.75
2022-12-12T12:49:26.689Z,16.95
2022-12-12T12:52:03.413Z,23.33
2022-12-12T12:54:49.372Z,15.60
2022-12-12T12:57:35.237Z,21.90
2022-12-12T13:00:10.064Z,30.20
2022-12-12T13:02:51.898Z,24.85
2022-12-12T13:05:33.513Z,25.50
2022-12-12T13:10:30.743Z,27.48
2022-12-12T13:13:15.350Z,28.95
2022-12-12T13:15:45.176Z,22.38
2022-12-12T13:18:13.847Z,25.67
2022-12-12T13:20:48.416Z,20.55
2022-12-12T13:23:33.713Z,22.63
2022-12-12T13:26:06.061Z,22.10
2022-12-12T13:28:36.119Z,31.20
2022-12-12T13:31:17.775Z,23.25
2022-12-12T13:33:51.266Z,21.85
2022-12-12T13:36:24.507Z,22.98
2022-12-12T13:38:59.522Z,34.50
2022-12-12T13:41:26.253Z,29.90
2022-12-12T13:43:59.866Z,28.83
2022-12-12T13:46:27.328Z,22.05
2022-12-12T13:49:15.982Z,24.58
2022-12-12T13:51:44.621Z,27.00
2022-12-12T13:54:14.490Z,19.95
2022-12-12T13:57:05.478Z,20.95
2022-12-12T13:59:32.175Z,25.23
2022-12-12T14:02:22.505Z,22.88
2022-12-12T14:05:08.613Z,31.92
2022-12-12T14:07:35.729Z,33.97
2022-12-12T14:10:17.613Z,37.00
2022-12-12T14:12:44.668Z,37.03
2022-12-12T14:15:28.812Z,28.42
2022-12-12T14:17:59.443Z,31.00
2022-12-12T14:20:29.262Z,34.65
2022-12-12T14:22:56.302Z,32.20
2022-12-12T14:25:39.374Z,36.38
2022-12-12T14:28:19.621Z,32.85
2022-12-12T14:30:50.571Z,36.90
2022-12-12T14:33:17.162Z,29.45
2022-12-12T14:35:51.736Z,41.45
2022-12-12T14:38:40.795Z,33.80
2022-12-12T14:41:14.456Z,49.72
2022-12-12T14:43:46.307Z,46.70
2022-12-12T14:46:16.584Z,42.67
2022-12-12T14:48:47.042Z,53.15
2022-12-12T14:51:27.707Z,42.13
2022-12-12T14:53:57.168Z,38.00
2022-12-12T14:56:30.329Z,49.40
2022-12-12T14:58:58.019Z,44.35
2022-12-12T15:01:36.398Z,58.42
2022-12-12T15:04:08.967Z,51.90
2022-12-12T15:06:43.799Z,49.05
2022-12-12T15:09:27.524Z,51.00
2022-12-12T15:11:56.519Z,54.03
2022-12-12T15:14:25.855Z,51.20
2022-12-12T15:19:44.787Z,49.42
2022-12-12T15:22:22.045Z,43.80
2022-12-12T15:24:49.013Z,40.00
2022-12-12T15:27:24.295Z,36.33
2022-12-12T15:29:51.155Z,90.80
2022-12-12T15:32:20.316Z,91.72
2022-12-12T15:34:49.114Z,48.35
2022-12-12T15:37:28.388Z,50.42
2022-12-12T15:40:11.556Z,75.82
2022-12-12T15:42:40.836Z,57.22
2022-12-12T15:45:09.271Z,80.70
2022-12-12T15:47:35.951Z,69.93
2022-12-12T15:50:10.384Z,67.80
2022-12-12T15:52:37.176Z,69.78
2022-12-12T15:55:05.196Z,62.75
2022-12-12T15:57:34.501Z,63.30
2022-12-12T16:02:31.578Z,67.53
2022-12-12T16:05:23.455Z,57.17
2022-12-12T16:07:50.211Z,57.72
2022-12-12T16:10:24.182Z,47.83
2022-12-12T16:13:15.671Z,54.65
2022-12-12T16:15:42.372Z,54.75
2022-12-12T16:18:15.036Z,57.38
2022-12-12T16:20:47.850Z,56.38
2022-12-12T16:23:33.711Z,57.75
2022-12-12T16:26:00.482Z,62.60
2022-12-12T16:28:29.539Z,63.78
2022-12-12T16:31:04.572Z,58.63
2022-12-12T16:33:35.771Z,104.35
2022-12-12T16:36:05.035Z,98.78
2022-12-12T16:38:32.393Z,90.85
2022-12-12T16:41:01.043Z,91.65
2022-12-12T16:43:28.281Z,82.90
2022-12-12T16:45:56.531Z,98.13
2022-12-12T16:48:43.406Z,92.18
2022-12-12T16:51:16.024Z,84.18
2022-12-12T16:53:42.767Z,91.60
2022-12-12T16:56:11.194Z,126.63
2022-12-12T16:58:38.007Z,102.28
2022-12-12T17:01:05.519Z,99.85
2022-12-12T17:03:32.945Z,94.28
2022-12-12T17:06:00.142Z,81.40
2022-12-12T17:08:27.382Z,71.60
2022-12-12T17:11:10.153Z,62.85
2022-12-12T17:13:39.718Z,73.22
2022-12-12T17:16:06.592Z,63.90
2022-12-12T17:18:33.268Z,53.90
2022-12-12T17:21:00.075Z,63.72
2022-12-12T17:23:29.548Z,71.07
2022-12-12T17:26:03.071Z,63.33
2022-12-12T17:28:32.211Z,66.63
2022-12-12T17:30:59.332Z,75.75
2022-12-12T17:33:26.334Z,65.32
2022-12-12T17:36:04.804Z,74.20
2022-12-12T17:38:31.623Z,61.72
2022-12-12T17:40:58.875Z,83.72
2022-12-12T17:43:25.684Z,79.15
2022-12-12T17:46:00.566Z,65.97
2022-12-12T17:48:29.646Z,76.47
2022-12-12T17:51:00.279Z,60.60
2022-12-12T17:53:27.687Z,76.95
2022-12-12T17:56:01.178Z,80.05
2022-12-12T17:58:34.278Z,95.18
2022-12-12T18:01:01.132Z,94.80
2022-12-12T18:03:27.847Z,114.40
2022-12-12T18:05:54.500Z,124.85
2022-12-12T18:08:21.294Z,99.45
2022-12-12T18:10:47.981Z,94.80
2022-12-12T18:13:14.667Z,90.05
2022-12-12T18:15:42.428Z,92.72
2022-12-12T18:18:09.074Z,83.28
2022-12-12T18:20:40.219Z,79.15
2022-12-12T18:23:06.889Z,82.88
2022-12-12T18:25:36.679Z,87.65
2022-12-12T18:28:03.429Z,86.53
2022-12-12T18:30:30.058Z,79.07
2022-12-12T18:33:01.289Z,73.90
2022-12-12T18:35:29.774Z,75.93
2022-12-12T18:37:56.405Z,72.93
2022-12-12T18:40:23.648Z,87.07
2022-12-12T18:42:50.396Z,90.25
2022-12-12T18:45:17.138Z,100.47
2022-12-12T18:47:46.811Z,81.18
2022-12-12T18:50:13.823Z,82.78
2022-12-12T18:52:40.812Z,78.85
2022-12-12T18:55:08.135Z,73.90
2022-12-12T18:57:34.854Z,69.80
2022-12-12T19:00:01.958Z,65.70
2022-12-12T19:02:29.325Z,67.72
2022-12-12T19:04:56.049Z,70.50
2022-12-12T19:07:22.788Z,63.97
2022-12-12T19:09:49.510Z,58.80
2022-12-12T19:12:16.164Z,71.50
2022-12-12T19:17:29.435Z,70.88
2022-12-12T19:19:56.165Z,61.28
2022-12-12T19:25:09.892Z,58.67
2022-12-12T19:27:36.569Z,57.95
2022-12-12T19:30:04.113Z,59.90
2022-12-12T19:32:30.801Z,49.47
2022-12-12T19:34:58.255Z,51.10
2022-12-12T19:37:25.013Z,53.35
2022-12-12T19:39:52.943Z,59.00
2022-12-12T19:42:20.467Z,49.67
2022-12-12T19:44:47.130Z,53.42
2022-12-12T19:47:13.857Z,46.45
2022-12-12T19:49:40.532Z,40.50
2022-12-12T19:52:13.638Z,37.80
2022-12-12T19:54:40.858Z,36.95
2022-12-12T19:57:07.534Z,39.92
2022-12-12T19:59:34.158Z,33.95
2022-12-12T20:02:01.124Z,36.63
2022-12-12T20:04:30.255Z,35.92
2022-12-12T20:06:57.104Z,34.10
2022-12-12T20:09:26.827Z,33.85
2022-12-12T20:11:54.555Z,33.08
2022-12-12T20:14:23.387Z,37.38
2022-12-12T20:16:50.860Z,36.72
2022-12-12T20:19:18.080Z,32.35
2022-12-12T20:22:03.259Z,42.63
2022-12-12T20:24:32.491Z,36.20
2022-12-12T20:27:00.045Z,34.78
2022-12-12T20:29:27.224Z,28.95
2022-12-12T20:31:53.946Z,28.67
2022-12-12T20:34:25.258Z,30.80
2022-12-12T20:36:52.440Z,31.73
2022-12-12T20:39:22.031Z,36.30
2022-12-12T20:41:49.910Z,32.50
2022-12-12T20:44:16.624Z,32.92
2022-12-12T20:46:45.756Z,32.20
2022-12-12T20:49:17.658Z,44.45
2022-12-12T20:51:55.263Z,28.45
2022-12-12T20:54:24.522Z,20.00
2022-12-12T20:56:51.895Z,17.17
2022-12-12T20:59:18.644Z,15.95
2022-12-12T21:01:47.367Z,14.73
2022-12-12T21:04:14.460Z,15.20
2022-12-12T21:06:44.388Z,16.77
2022-12-12T21:09:16.171Z,14.57
2022-12-12T21:11:43.150Z,15.60
2022-12-12T21:14:10.166Z,13.75
2022-12-12T21:16:38.895Z,17.88
2022-12-12T21:19:11.577Z,14.95
2022-12-12T21:21:40.043Z,16.95
2022-12-12T21:24:06.976Z,16.30
2022-12-12T21:26:34.086Z,15.98
2022-12-12T21:29:04.895Z,17.77
2022-12-12T21:31:34.963Z,18.20
2022-12-12T21:34:01.692Z,17.95
2022-12-12T21:36:29.752Z,20.63
2022-12-12T21:38:57.944Z,19.42
2022-12-12T21:41:25.384Z,18.80
2022-12-12T21:43:52.733Z,24.08
2022-12-12T21:46:21.545Z,21.52
2022-12-12T21:49:11.666Z,20.00
2022-12-12T21:51:39.829Z,19.23
2022-12-12T21:54:07.426Z,18.17
2022-12-12T21:56:34.132Z,15.75
2022-12-12T21:59:00.832Z,17.27
2022-12-12T22:01:27.800Z,17.33
2022-12-12T22:03:55.310Z,15.93
2022-12-12T22:06:24.723Z,15.35
2022-12-12T22:11:40.335Z,14.50
2022-12-12T22:14:06.348Z,14.32
2022-12-12T22:16:33.695Z,14.63
2022-12-12T22:19:05.769Z,25.27
2022-12-12T22:21:33.231Z,26.33
2022-12-12T22:24:00.084Z,13.60
2022-12-12T22:26:31.887Z,14.02
2022-12-12T22:29:00.730Z,13.52
2022-12-12T22:31:30.478Z,13.20
2022-12-12T22:33:59.763Z,11.65
2022-12-12T22:36:29.586Z,13.60
2022-12-12T22:38:57.170Z,11.45
2022-12-12T22:41:24.288Z,12.10
2022-12-12T22:44:06.316Z,11.73
2022-12-12T22:46:34.509Z,11.20
2022-12-12T22:49:03.774Z,10.75
2022-12-12T22:51:32.095Z,10.77
2022-12-12T22:54:01.414Z,11.93
2022-12-12T22:56:28.666Z,14.70
2022-12-12T22:58:55.616Z,11.20
2022-12-12T23:01:23.246Z,10.55
2022-12-12T23:03:50.176Z,9.95
2022-12-12T23:06:30.111Z,9.40
2022-12-12T23:09:01.313Z,10.25
2022-12-12T23:11:29.700Z,10.18
2022-12-12T23:14:02.248Z,10.40
2022-12-12T23:16:30.992Z,10.13
2022-12-12T23:18:58.870Z,10.02
2022-12-12T23:21:26.246Z,10.35
2022-12-12T23:23:53.853Z,8.95
2022-12-12T23:26:23.412Z,7.82
2022-12-12T23:28:50.406Z,7.78
2022-12-12T23:31:19.815Z,8.82
2022-12-12T23:36:15.318Z,7.15
2022-12-12T23:38:43.630Z,7.28
2022-12-12T23:41:12.528Z,7.40
2022-12-12T23:43:39.418Z,6.90
2022-12-12T23:46:08.601Z,6.70
2022-12-12T23:48:35.851Z,6.25
2022-12-12T23:51:02.540Z,6.18
2022-12-12T23:53:32.411Z,6.43
2022-12-12T23:56:03.346Z,5.55
2022-12-12T23:58:30.070Z,6.93
